This is the latest recevied weather packets stored in our database for station/object EW2310. If no packets are shown the sender has not sent any weather packets the latest 10 day(s).
| Time | Temp. | Humidity | Pressure | Rain* | Wind** | Luminosity | Snow |
|---|---|---|---|---|---|---|---|
| 1777906843 | 17.78° C | 73% | 1016.7 hPa | 0 mm | - | 125 W/m² | - |
| 1777905043 | 18.33° C | 71% | 1017 hPa | 0 mm | - | 220 W/m² | - |
| 1777904743 | 18.33° C | 70% | 1017 hPa | 0 mm | - | 241 W/m² | - |
| 1777902643 | 17.78° C | 71% | 1016.9 hPa | 0 mm | - | 292 W/m² | - |
| 1777901746 | 17.78° C | 69% | 1016.9 hPa | 0 mm | - | 181 W/m² | - |
| 1777901143 | 18.33° C | 69% | 1017.1 hPa | 0 mm | - | 207 W/m² | - |
| 1777900543 | 18.33° C | 67% | 1017.3 hPa | 0 mm | - | 241 W/m² | - |
| 1777899943 | 18.33° C | 66% | 1017.5 hPa | 0 mm | - | 269 W/m² | - |
| 1777898743 | 18.89° C | 66% | 1017.7 hPa | 0 mm | - | 503 W/m² | - |
| 1777898146 | 18.89° C | 67% | 1017.6 hPa | 0 mm | - | 397 W/m² | - |
| 1777897846 | 18.89° C | 65% | 1017.5 hPa | 0 mm | - | 348 W/m² | - |
| 1777896043 | 18.89° C | 63% | 1017.8 hPa | 0 mm | - | 578 W/m² | - |
| 1777893343 | 19.44° C | 62% | 1018 hPa | 0 mm | - | 504 W/m² | - |
| 1777891843 | 18.89° C | 62% | 1018.2 hPa | 0 mm | - | 519 W/m² | - |
| 1777890943 | 19.44° C | 62% | 1018.2 hPa | 0 mm | - | 446 W/m² | - |
| 1777888843 | 20° C | 59% | 1018.3 hPa | 0 mm | - | 589 W/m² | - |
| 1777886743 | 19.44° C | 59% | 1018.4 hPa | 0 mm | - | 916 W/m² | - |
| 1777884043 | 18.89° C | 65% | 1018.6 hPa | 0 mm | - | 612 W/m² | - |
| 1777883146 | 18.33° C | 68% | 1018.5 hPa | 0 mm | - | 536 W/m² | - |
| 1777881943 | 17.78° C | 69% | 1018.7 hPa | 0 mm | - | 501 W/m² | - |
| 1777879843 | 17.22° C | 71% | 1018.5 hPa | 0 mm | - | 605 W/m² | - |
| 1777879243 | 17.22° C | 73% | 1018.5 hPa | 0 mm | - | 510 W/m² | - |
| 1777878946 | 17.22° C | 74% | 1018.4 hPa | 0 mm | - | 415 W/m² | - |
| 1777878046 | 16.67° C | 77% | 1018.2 hPa | 0 mm | - | 427 W/m² | - |
| 1777875343 | 15.56° C | 79% | 1018 hPa | 0 mm | - | 258 W/m² | - |
* Rain latest hour (hover to see other rain measurements)
** Current wind speed in m/s (hover to see current wind gust speed)